createdAt,value
2022-11-10T00:01:10.405Z,101618.44
2022-11-10T00:03:51.056Z,101621.84
2022-11-10T00:06:31.369Z,101628.97
2022-11-10T00:09:11.983Z,101630.09
2022-11-10T00:11:52.667Z,101634.47
2022-11-10T00:14:51.354Z,101638.38
2022-11-10T00:17:32.770Z,101641.72
2022-11-10T00:20:13.476Z,101642.06
2022-11-10T00:22:55.579Z,101646.75
2022-11-10T00:25:35.618Z,101650.13
2022-11-10T00:28:16.323Z,101651.28
2022-11-10T00:30:56.622Z,101648.50
2022-11-10T00:33:43.741Z,101651.28
2022-11-10T00:36:25.009Z,101648.50
2022-11-10T00:39:05.949Z,101645.75
2022-11-10T00:41:46.045Z,101652.72
2022-11-10T00:44:26.724Z,101648.31
2022-11-10T00:47:07.353Z,101652.84
2022-11-10T00:49:47.655Z,101650.38
2022-11-10T00:52:28.080Z,101667.53
2022-11-10T00:55:09.150Z,101662.03
2022-11-10T00:57:49.455Z,101663.16
2022-11-10T01:00:30.138Z,101665.59
2022-11-10T01:03:16.015Z,101674.16
2022-11-10T01:05:56.569Z,101659.59
2022-11-10T01:08:38.427Z,101668.47
2022-11-10T01:11:27.147Z,101674.91
2022-11-10T01:14:08.141Z,101668.38
2022-11-10T01:16:48.659Z,101680.00
2022-11-10T01:19:29.402Z,101686.78
2022-11-10T01:22:09.590Z,101699.19
2022-11-10T01:24:50.141Z,101703.72
2022-11-10T01:27:30.776Z,101706.75
2022-11-10T01:30:12.675Z,101708.19
2022-11-10T01:32:55.210Z,101709.63
2022-11-10T01:35:35.518Z,101702.00
2022-11-10T01:38:15.969Z,101713.63
2022-11-10T01:40:58.206Z,101711.97
2022-11-10T01:43:39.208Z,101724.13
2022-11-10T01:46:19.759Z,101720.88
2022-11-10T01:49:04.391Z,101716.47
2022-11-10T01:52:00.561Z,101720.34
2022-11-10T01:54:48.796Z,101718.22
2022-11-10T01:57:29.134Z,101720.97
2022-11-10T02:00:10.742Z,101728.09
2022-11-10T02:03:07.409Z,101723.41
2022-11-10T02:05:49.278Z,101721.78
2022-11-10T02:08:30.511Z,101708.31
2022-11-10T02:11:12.478Z,101714.16
2022-11-10T02:13:53.820Z,101719.31
2022-11-10T02:16:34.930Z,101714.16
2022-11-10T02:19:42.029Z,101722.06
2022-11-10T02:22:22.520Z,101729.00
2022-11-10T02:25:04.960Z,101734.22
2022-11-10T02:27:45.410Z,101739.72
2022-11-10T02:30:27.868Z,101746.56
2022-11-10T02:33:08.421Z,101751.53
2022-11-10T02:35:49.104Z,101756.25
2022-11-10T02:38:29.296Z,101759.50
2022-11-10T02:41:10.307Z,101751.53
2022-11-10T02:43:53.308Z,101755.94
2022-11-10T02:46:34.052Z,101766.13
2022-11-10T02:49:14.304Z,101757.56
2022-11-10T02:51:55.125Z,101754.81
2022-11-10T02:54:35.293Z,101761.94
2022-11-10T02:57:15.823Z,101762.78
2022-11-10T02:59:56.394Z,101773.78
2022-11-10T03:02:36.929Z,101768.28
2022-11-10T03:05:17.598Z,101765.81
2022-11-10T03:08:02.088Z,101774.69
2022-11-10T03:10:42.556Z,101773.06
2022-11-10T03:13:35.662Z,101771.44
2022-11-10T03:16:26.802Z,101773.66
2022-11-10T03:19:07.317Z,101782.22
2022-11-10T03:21:47.608Z,101777.03
2022-11-10T03:24:28.354Z,101782.03
2022-11-10T03:27:08.627Z,101777.66
2022-11-10T03:29:49.269Z,101800.25
2022-11-10T03:32:29.971Z,101805.25
2022-11-10T03:35:10.966Z,101819.00
2022-11-10T03:37:51.324Z,101816.56
2022-11-10T03:40:41.207Z,101817.69
2022-11-10T03:43:32.036Z,101822.09
2022-11-10T03:46:12.546Z,101823.19
2022-11-10T03:48:53.781Z,101825.44
2022-11-10T03:51:34.310Z,101825.22
2022-11-10T03:54:14.628Z,101833.78
2022-11-10T03:56:55.437Z,101837.66
2022-11-10T03:59:36.450Z,101842.63
2022-11-10T04:02:16.623Z,101848.94
2022-11-10T04:05:15.654Z,101848.13
2022-11-10T04:08:19.223Z,101853.13
2022-11-10T04:10:59.863Z,101852.59
2022-11-10T04:13:58.605Z,101857.63
2022-11-10T04:16:38.943Z,101854.03
2022-11-10T04:19:20.172Z,101873.28
2022-11-10T04:22:00.399Z,101874.41
2022-11-10T04:24:40.862Z,101882.94
2022-11-10T04:27:21.458Z,101896.22
2022-11-10T04:30:01.871Z,101904.75
2022-11-10T04:32:42.292Z,101908.63
2022-11-10T04:35:22.701Z,101919.63
2022-11-10T04:38:03.175Z,101929.81
2022-11-10T04:40:43.752Z,101925.72
2022-11-10T04:43:27.014Z,101936.72
2022-11-10T04:46:21.819Z,101936.72
2022-11-10T04:49:03.018Z,101940.28
2022-11-10T04:51:43.161Z,101943.03
2022-11-10T04:54:23.504Z,101954.88
2022-11-10T04:57:04.215Z,101936.19
2022-11-10T04:59:44.335Z,101952.41
2022-11-10T05:02:24.746Z,101950.78
2022-11-10T05:05:06.314Z,101948.84
2022-11-10T05:07:48.877Z,101959.03
2022-11-10T05:10:29.086Z,101956.59
2022-11-10T05:13:10.383Z,101951.38
2022-11-10T05:15:51.818Z,101956.88
2022-11-10T05:18:32.123Z,101948.13
2022-11-10T05:21:12.502Z,101949.50
2022-11-10T05:23:52.987Z,101958.59
2022-11-10T05:26:33.394Z,101951.44
2022-11-10T05:29:13.869Z,101960.81
2022-11-10T05:31:54.512Z,101958.69
2022-11-10T05:34:35.284Z,101959.78
2022-11-10T05:37:15.634Z,101962.31
2022-11-10T05:39:56.051Z,101959.31
2022-11-10T05:42:44.962Z,101959.63
2022-11-10T05:45:28.358Z,101960.53
2022-11-10T05:48:09.047Z,101962.75
2022-11-10T05:50:49.822Z,101971.06
2022-11-10T05:53:30.466Z,101977.66
2022-11-10T05:56:11.261Z,101982.13
2022-11-10T05:58:51.415Z,101979.66
2022-11-10T06:01:31.954Z,101987.09
2022-11-10T06:04:12.570Z,101986.56
2022-11-10T06:06:53.198Z,101988.50
2022-11-10T06:09:34.530Z,101991.53
2022-11-10T06:12:15.690Z,101997.03
2022-11-10T06:14:58.941Z,102002.53
2022-11-10T06:17:39.462Z,102008.56
2022-11-10T06:20:20.217Z,101997.03
2022-11-10T06:23:07.211Z,102013.53
2022-11-10T06:25:47.880Z,102011.91
2022-11-10T06:28:28.266Z,102015.19
2022-11-10T06:31:08.894Z,102013.25
2022-11-10T06:33:49.278Z,102023.44
2022-11-10T06:36:29.469Z,102028.63
2022-11-10T06:39:10.257Z,102037.69
2022-11-10T06:41:51.000Z,102033.03
2022-11-10T06:44:31.330Z,102038.19
2022-11-10T06:47:11.934Z,102046.44
2022-11-10T06:49:52.609Z,102055.50
2022-11-10T06:52:32.772Z,102068.44
2022-11-10T06:55:13.605Z,102067.63
2022-11-10T06:57:54.401Z,102078.34
2022-11-10T07:00:34.797Z,102082.50
2022-11-10T07:03:16.245Z,102085.75
2022-11-10T07:05:58.283Z,102081.31
2022-11-10T07:08:38.615Z,102088.47
2022-11-10T07:11:19.033Z,102093.66
2022-11-10T07:13:59.490Z,102099.97
2022-11-10T07:16:40.223Z,102106.81
2022-11-10T07:19:20.487Z,102106.25
2022-11-10T07:22:02.670Z,102106.78
2022-11-10T07:24:45.793Z,102113.63
2022-11-10T07:27:26.123Z,102123.72
2022-11-10T07:30:07.776Z,102125.91
2022-11-10T07:33:00.598Z,102138.47
2022-11-10T07:35:42.056Z,102148.59
2022-11-10T07:38:22.741Z,102143.84
2022-11-10T07:41:04.082Z,102145.44
2022-11-10T07:43:44.488Z,102145.91
2022-11-10T07:46:25.730Z,102141.13
2022-11-10T07:49:06.510Z,102136.97
2022-11-10T07:51:46.868Z,102147.41
2022-11-10T07:54:27.575Z,102150.91
2022-11-10T07:57:08.178Z,102153.34
2022-11-10T07:59:48.462Z,102156.56
2022-11-10T08:02:28.990Z,102151.00
2022-11-10T08:05:09.650Z,102164.09
2022-11-10T08:07:49.845Z,102165.66
2022-11-10T08:10:32.113Z,102173.56
2022-11-10T08:13:13.757Z,102173.78
2022-11-10T08:15:54.231Z,102174.81
2022-11-10T08:18:35.670Z,102181.09
2022-11-10T08:21:16.312Z,102191.16
2022-11-10T08:23:56.847Z,102196.81
2022-11-10T08:26:37.538Z,102201.94
2022-11-10T08:29:18.686Z,102200.16
2022-11-10T08:31:59.292Z,102195.09
2022-11-10T08:34:39.659Z,102196.34
2022-11-10T08:37:20.502Z,102192.59
2022-11-10T08:40:00.715Z,102194.13
2022-11-10T08:42:41.330Z,102189.34
2022-11-10T08:45:21.508Z,102185.66
2022-11-10T08:48:12.981Z,102191.03
2022-11-10T08:50:54.203Z,102201.34
2022-11-10T08:53:34.441Z,102210.03
2022-11-10T08:56:15.005Z,102206.06
2022-11-10T08:58:55.553Z,102217.72
2022-11-10T09:01:35.722Z,102216.19
2022-11-10T09:04:19.371Z,102217.66
2022-11-10T09:07:00.361Z,102226.34
2022-11-10T09:09:41.160Z,102226.13
2022-11-10T09:12:21.350Z,102228.16
2022-11-10T09:15:01.916Z,102224.69
2022-11-10T09:17:42.852Z,102233.72
2022-11-10T09:20:23.400Z,102243.22
2022-11-10T09:23:16.541Z,102233.88
2022-11-10T09:25:57.053Z,102246.16
2022-11-10T09:28:37.720Z,102237.97
2022-11-10T09:31:18.577Z,102242.44
2022-11-10T09:33:59.424Z,102259.72
2022-11-10T09:36:40.471Z,102252.63
2022-11-10T09:39:24.057Z,102258.34
2022-11-10T09:42:19.913Z,102256.78
2022-11-10T09:45:20.767Z,102252.59
2022-11-10T09:48:15.032Z,102260.53
2022-11-10T09:51:13.202Z,102254.41
2022-11-10T09:54:19.535Z,102263.09
2022-11-10T09:57:04.998Z,102262.16
2022-11-10T09:59:45.655Z,102260.88
2022-11-10T10:02:42.175Z,102265.97
2022-11-10T10:06:09.249Z,102262.00
2022-11-10T10:09:00.611Z,102264.00
2022-11-10T10:12:04.642Z,102263.44
2022-11-10T10:15:03.353Z,102266.91
2022-11-10T10:17:46.734Z,102270.22
2022-11-10T10:20:50.287Z,102274.34
2022-11-10T10:24:07.214Z,102281.06
2022-11-10T10:26:45.287Z,102285.31
2022-11-10T10:29:39.704Z,102289.25
2022-11-10T10:32:23.814Z,102279.03
2022-11-10T10:35:04.895Z,102286.53
2022-11-10T10:37:51.539Z,102289.34
2022-11-10T10:40:32.292Z,102293.28
2022-11-10T10:43:12.783Z,102303.09
2022-11-10T10:46:12.080Z,102314.53
2022-11-10T10:49:31.716Z,102319.75
2022-11-10T10:52:16.604Z,102326.97
2022-11-10T10:55:02.445Z,102329.25
2022-11-10T10:57:57.052Z,102324.06
2022-11-10T11:00:47.159Z,102326.03
2022-11-10T11:03:30.700Z,102332.56
2022-11-10T11:06:17.039Z,102320.81
2022-11-10T11:09:24.058Z,102315.28
2022-11-10T11:12:13.482Z,102314.75
2022-11-10T11:15:18.762Z,102314.59
2022-11-10T11:18:02.829Z,102316.09
2022-11-10T11:20:58.205Z,102308.88
2022-11-10T11:24:05.559Z,102303.34
2022-11-10T11:26:56.080Z,102322.09
2022-11-10T11:30:05.637Z,102316.22
2022-11-10T11:33:21.423Z,102318.53
2022-11-10T11:36:39.106Z,102327.16
2022-11-10T11:40:01.391Z,102331.03
2022-11-10T11:43:18.710Z,102333.81
2022-11-10T11:46:57.825Z,102332.97
2022-11-10T11:50:31.300Z,102341.28
2022-11-10T11:53:46.725Z,102345.69
2022-11-10T11:56:35.743Z,102353.22
2022-11-10T11:59:53.876Z,102361.88
2022-11-10T12:03:26.902Z,102365.16
2022-11-10T12:06:52.335Z,102366.75
2022-11-10T12:09:44.321Z,102368.69
2022-11-10T12:13:10.836Z,102375.53
2022-11-10T12:16:20.202Z,102377.50
2022-11-10T12:19:23.607Z,102386.97
2022-11-10T12:22:24.001Z,102381.28
2022-11-10T12:25:24.985Z,102378.63
2022-11-10T12:28:24.207Z,102369.28
2022-11-10T12:31:13.631Z,102366.88
2022-11-10T12:34:21.241Z,102364.03
2022-11-10T12:37:07.717Z,102380.53
2022-11-10T12:40:16.080Z,102375.56
2022-11-10T12:43:06.842Z,102376.72
2022-11-10T12:45:57.033Z,102382.41
2022-11-10T12:49:06.017Z,102366.53
2022-11-10T12:51:49.379Z,102383.38
2022-11-10T12:54:30.398Z,102370.41
2022-11-10T12:57:24.935Z,102374.97
2022-11-10T13:00:27.811Z,102387.06
2022-11-10T13:03:36.801Z,102384.47
2022-11-10T13:06:28.980Z,102381.81
2022-11-10T13:09:36.540Z,102389.84
2022-11-10T13:12:25.980Z,102380.53
2022-11-10T13:15:44.180Z,102404.28
2022-11-10T13:18:30.662Z,102396.28
2022-11-10T13:21:11.589Z,102397.91
2022-11-10T13:23:51.953Z,102393.81
2022-11-10T13:26:44.891Z,102394.63
2022-11-10T13:29:43.977Z,102392.84
2022-11-10T13:32:35.130Z,102395.81
2022-11-10T13:35:28.103Z,102400.78
2022-11-10T13:38:34.552Z,102397.22
2022-11-10T13:41:17.925Z,102386.94
2022-11-10T13:43:58.753Z,102387.44
2022-11-10T13:47:10.090Z,102390.75
2022-11-10T13:50:12.178Z,102398.47
2022-11-10T13:53:15.133Z,102395.19
2022-11-10T13:56:37.108Z,102405.00
2022-11-10T13:59:26.471Z,102386.41
2022-11-10T14:02:34.923Z,102374.31
2022-11-10T14:06:08.707Z,102384.28
2022-11-10T14:09:00.365Z,102386.59
2022-11-10T14:11:56.764Z,102389.50
2022-11-10T14:14:53.206Z,102387.56
2022-11-10T14:17:50.591Z,102385.47
2022-11-10T14:20:43.681Z,102380.56
2022-11-10T14:24:10.182Z,102380.41
2022-11-10T14:27:00.030Z,102384.97
2022-11-10T14:29:42.307Z,102391.00
2022-11-10T14:32:25.113Z,102396.25
2022-11-10T14:35:07.006Z,102397.88
2022-11-10T14:37:47.548Z,102392.47
2022-11-10T14:40:28.996Z,102392.66
2022-11-10T14:43:37.664Z,102384.66
2022-11-10T14:46:24.946Z,102382.03
2022-11-10T14:49:05.696Z,102386.63
2022-11-10T14:51:46.436Z,102389.22
2022-11-10T14:54:29.423Z,102404.06
2022-11-10T14:57:18.466Z,102412.25
2022-11-10T14:59:59.778Z,102410.13
2022-11-10T15:02:41.324Z,102412.72
2022-11-10T15:05:22.464Z,102412.06
2022-11-10T15:08:04.982Z,102417.78
2022-11-10T15:10:53.358Z,102411.41
2022-11-10T15:13:39.321Z,102415.97
2022-11-10T15:16:30.932Z,102420.22
2022-11-10T15:19:28.283Z,102419.72
2022-11-10T15:22:41.227Z,102419.38
2022-11-10T15:25:39.292Z,102422.09
2022-11-10T15:28:30.748Z,102417.84
2022-11-10T15:31:32.021Z,102431.03
2022-11-10T15:34:42.827Z,102438.66
2022-11-10T15:37:31.027Z,102449.41
2022-11-10T15:40:31.661Z,102459.00
2022-11-10T15:43:22.996Z,102458.13
2022-11-10T15:46:17.768Z,102453.69
2022-11-10T15:49:00.430Z,102446.16
2022-11-10T15:51:41.097Z,102454.91
2022-11-10T15:54:25.856Z,102462.22
2022-11-10T15:57:13.178Z,102466.25
2022-11-10T15:59:53.680Z,102469.47
2022-11-10T16:02:34.484Z,102479.53
2022-11-10T16:05:14.857Z,102478.03
2022-11-10T16:07:55.344Z,102469.34
2022-11-10T16:10:35.854Z,102471.41
2022-11-10T16:13:35.618Z,102473.47
2022-11-10T16:16:18.734Z,102485.81
2022-11-10T16:18:59.062Z,102474.88
2022-11-10T16:21:39.782Z,102479.38
2022-11-10T16:24:20.491Z,102487.50
2022-11-10T16:27:00.983Z,102495.56
2022-11-10T16:29:43.303Z,102492.63
2022-11-10T16:32:23.548Z,102482.75
2022-11-10T16:35:04.656Z,102480.13
2022-11-10T16:37:45.128Z,102482.78
2022-11-10T16:40:25.527Z,102488.75
2022-11-10T16:43:17.051Z,102480.34
2022-11-10T16:46:02.514Z,102481.28
2022-11-10T16:48:46.511Z,102497.16
2022-11-10T16:51:47.228Z,102494.41
2022-11-10T16:54:28.937Z,102501.66
2022-11-10T16:57:17.551Z,102510.28
2022-11-10T16:59:57.946Z,102505.34
2022-11-10T17:02:39.845Z,102513.97
2022-11-10T17:05:20.624Z,102523.69
2022-11-10T17:08:03.858Z,102523.19
2022-11-10T17:10:44.217Z,102526.56
2022-11-10T17:13:25.986Z,102529.91
2022-11-10T17:16:32.649Z,102532.47
2022-11-10T17:19:25.798Z,102537.78
2022-11-10T17:22:06.736Z,102538.69
2022-11-10T17:24:53.781Z,102535.72
2022-11-10T17:27:37.890Z,102538.31
2022-11-10T17:30:20.165Z,102545.25
2022-11-10T17:33:05.478Z,102555.56
2022-11-10T17:35:50.590Z,102553.41
2022-11-10T17:38:33.755Z,102554.59
2022-11-10T17:41:19.742Z,102548.06
2022-11-10T17:44:00.017Z,102544.78
2022-11-10T17:46:41.683Z,102562.78
2022-11-10T17:49:22.019Z,102563.38
2022-11-10T17:52:03.256Z,102559.50
2022-11-10T17:54:45.798Z,102561.44
2022-11-10T17:57:26.240Z,102556.22
2022-11-10T18:00:08.584Z,102549.88
2022-11-10T18:02:55.330Z,102560.91
2022-11-10T18:05:38.522Z,102567.06
2022-11-10T18:08:19.465Z,102574.81
2022-11-10T18:11:01.097Z,102579.53
2022-11-10T18:13:43.650Z,102585.94
2022-11-10T18:16:24.138Z,102591.47
2022-11-10T18:19:05.769Z,102593.09
2022-11-10T18:21:46.158Z,102585.13
2022-11-10T18:24:26.347Z,102593.72
2022-11-10T18:27:07.017Z,102596.75
2022-11-10T18:29:47.545Z,102602.59
2022-11-10T18:32:28.211Z,102602.59
2022-11-10T18:35:08.766Z,102587.44
2022-11-10T18:37:49.310Z,102597.69
2022-11-10T18:40:29.799Z,102598.91
2022-11-10T18:43:10.186Z,102592.63
2022-11-10T18:45:54.589Z,102589.94
2022-11-10T18:48:37.379Z,102580.63
2022-11-10T18:51:18.092Z,102579.56
2022-11-10T18:53:58.819Z,102591.75
2022-11-10T18:56:39.192Z,102592.56
2022-11-10T18:59:20.005Z,102592.56
2022-11-10T19:02:00.292Z,102592.31
2022-11-10T19:04:41.030Z,102581.06
2022-11-10T19:07:21.714Z,102574.72
2022-11-10T19:10:01.944Z,102577.47
2022-11-10T19:12:42.541Z,102581.66
2022-11-10T19:15:23.183Z,102583.34
2022-11-10T19:18:03.583Z,102581.72
2022-11-10T19:20:44.030Z,102587.81
2022-11-10T19:23:24.896Z,102585.38
2022-11-10T19:26:22.549Z,102581.28
2022-11-10T19:29:04.746Z,102593.72
2022-11-10T19:31:46.461Z,102595.09
2022-11-10T19:34:26.834Z,102602.88
2022-11-10T19:37:07.447Z,102607.63
2022-11-10T19:39:47.946Z,102612.91
2022-11-10T19:42:28.439Z,102622.88
2022-11-10T19:45:09.594Z,102621.25
2022-11-10T19:47:49.764Z,102630.09
2022-11-10T19:50:30.513Z,102634.78
2022-11-10T19:53:11.030Z,102639.22
2022-11-10T19:55:51.903Z,102633.16
2022-11-10T19:58:35.689Z,102640.91
2022-11-10T20:01:18.130Z,102638.44
2022-11-10T20:04:00.875Z,102652.22
2022-11-10T20:06:41.053Z,102650.06
2022-11-10T20:09:21.617Z,102649.50
2022-11-10T20:12:01.863Z,102652.06
2022-11-10T20:14:42.443Z,102656.75
2022-11-10T20:17:22.994Z,102658.97
2022-11-10T20:20:04.238Z,102678.03
2022-11-10T20:22:45.031Z,102661.78
2022-11-10T20:25:25.434Z,102672.81
2022-11-10T20:28:07.112Z,102662.06
2022-11-10T20:30:47.602Z,102669.53
2022-11-10T20:33:30.218Z,102674.78
2022-11-10T20:36:20.331Z,102679.47
2022-11-10T20:39:00.937Z,102671.78
2022-11-10T20:41:41.396Z,102668.50
2022-11-10T20:44:22.008Z,102667.97
2022-11-10T20:47:02.464Z,102669.66
2022-11-10T20:49:43.197Z,102682.06
2022-11-10T20:52:24.731Z,102681.25
2022-11-10T20:55:06.185Z,102681.03
2022-11-10T20:57:46.761Z,102670.28
2022-11-10T21:00:27.383Z,102674.16
2022-11-10T21:03:08.198Z,102683.81
2022-11-10T21:05:56.349Z,102671.13
2022-11-10T21:08:37.692Z,102670.91
2022-11-10T21:11:38.240Z,102668.72
2022-11-10T21:14:19.190Z,102665.16
2022-11-10T21:16:59.790Z,102664.34
2022-11-10T21:19:40.209Z,102659.97
2022-11-10T21:22:20.799Z,102666.03
2022-11-10T21:25:01.665Z,102663.84
2022-11-10T21:27:41.961Z,102663.31
2022-11-10T21:30:25.073Z,102669.41
2022-11-10T21:33:07.122Z,102668.06
2022-11-10T21:35:47.723Z,102679.34
2022-11-10T21:38:27.938Z,102676.00
2022-11-10T21:41:08.603Z,102675.78
2022-11-10T21:43:49.191Z,102676.00
2022-11-10T21:46:29.813Z,102682.66
2022-11-10T21:49:10.162Z,102692.53
2022-11-10T21:51:52.827Z,102698.63
2022-11-10T21:54:33.358Z,102691.75
2022-11-10T21:57:13.759Z,102700.34
2022-11-10T21:59:54.540Z,102704.44
2022-11-10T22:02:34.916Z,102701.69
2022-11-10T22:05:15.657Z,102696.50
2022-11-10T22:07:56.179Z,102704.22
2022-11-10T22:10:56.164Z,102706.69
2022-11-10T22:13:54.974Z,102712.47
2022-11-10T22:17:03.470Z,102727.06
2022-11-10T22:19:44.612Z,102732.28
2022-11-10T22:22:24.817Z,102729.53
2022-11-10T22:25:06.193Z,102735.06
2022-11-10T22:27:46.993Z,102740.56
2022-11-10T22:30:27.569Z,102738.91
2022-11-10T22:33:27.015Z,102743.31
2022-11-10T22:36:12.174Z,102742.50
2022-11-10T22:38:52.439Z,102742.78
2022-11-10T22:41:51.393Z,102749.41
2022-11-10T22:44:31.906Z,102759.88
2022-11-10T22:47:12.234Z,102752.69
2022-11-10T22:49:53.419Z,102760.41
2022-11-10T22:52:33.673Z,102762.06
2022-11-10T22:55:14.351Z,102764.28
2022-11-10T22:57:55.018Z,102757.16
2022-11-10T23:00:35.567Z,102767.06
2022-11-10T23:03:16.089Z,102771.75
2022-11-10T23:05:56.724Z,102786.63
2022-11-10T23:08:37.646Z,102791.59
2022-11-10T23:11:22.664Z,102799.59
2022-11-10T23:14:03.153Z,102789.13
2022-11-10T23:16:43.649Z,102788.59
2022-11-10T23:19:24.204Z,102794.66
2022-11-10T23:22:04.631Z,102782.28
2022-11-10T23:24:45.306Z,102767.97
2022-11-10T23:27:25.835Z,102776.50
2022-11-10T23:30:06.930Z,102782.31
2022-11-10T23:32:47.148Z,102782.56
2022-11-10T23:35:27.504Z,102782.03
2022-11-10T23:38:08.099Z,102782.31
2022-11-10T23:40:48.511Z,102794.44
2022-11-10T23:43:30.153Z,102791.44
2022-11-10T23:46:11.916Z,102791.13
2022-11-10T23:48:52.476Z,102799.66
2022-11-10T23:51:32.859Z,102810.66
2022-11-10T23:54:13.258Z,102805.47
2022-11-10T23:56:56.488Z,102796.66
2022-11-10T23:59:37.014Z,102799.69
